createdAt,value
2022-10-18T07:08:43.641Z,100285.59
2022-10-18T07:11:15.930Z,100281.34
2022-10-18T07:13:42.540Z,100279.22
2022-10-18T07:16:17.392Z,100277.41
2022-10-18T07:18:52.331Z,100285.72
2022-10-18T07:21:25.810Z,100282.66
2022-10-18T07:23:52.717Z,100284.19
2022-10-18T07:26:31.099Z,100279.00
2022-10-18T07:29:05.967Z,100284.72
2022-10-18T07:31:33.402Z,100291.78
2022-10-18T07:33:59.994Z,100286.63
2022-10-18T07:36:29.400Z,100289.06
2022-10-18T07:38:55.965Z,100292.53
2022-10-18T07:41:24.059Z,100296.59
2022-10-18T07:43:51.850Z,100299.28
2022-10-18T07:46:20.029Z,100306.69
2022-10-18T07:48:46.813Z,100302.44
2022-10-18T07:51:13.549Z,100309.56
2022-10-18T07:53:40.431Z,100311.59
2022-10-18T07:56:18.359Z,100325.88
2022-10-18T07:58:53.743Z,100318.56
2022-10-18T08:01:24.028Z,100331.59
2022-10-18T08:03:50.771Z,100336.03
2022-10-18T08:06:19.155Z,100336.94
2022-10-18T08:08:46.635Z,100338.38
2022-10-18T08:11:15.796Z,100341.66
2022-10-18T08:13:42.798Z,100341.41
2022-10-18T08:16:11.736Z,100340.34
2022-10-18T08:18:38.467Z,100346.75
2022-10-18T08:21:06.726Z,100346.91
2022-10-18T08:23:33.601Z,100339.13
2022-10-18T08:26:06.081Z,100346.75
2022-10-18T08:28:32.754Z,100348.06
2022-10-18T08:31:12.669Z,100342.03
2022-10-18T08:33:39.991Z,100352.34
2022-10-18T08:36:08.437Z,100348.41
2022-10-18T08:38:36.293Z,100345.66
2022-10-18T08:41:16.166Z,100347.34
2022-10-18T08:44:15.960Z,100350.03
2022-10-18T08:46:46.016Z,100352.50
2022-10-18T08:49:22.336Z,100351.75
2022-10-18T08:51:49.633Z,100350.25
2022-10-18T08:54:22.509Z,100358.63
2022-10-18T08:56:58.349Z,100353.66
2022-10-18T08:59:25.717Z,100355.59
2022-10-18T09:02:01.382Z,100365.44
2022-10-18T09:04:49.792Z,100365.78
2022-10-18T09:07:22.142Z,100361.25
2022-10-18T09:09:54.649Z,100367.41
2022-10-18T09:12:43.608Z,100365.59
2022-10-18T09:15:18.583Z,100368.53
2022-10-18T09:18:00.161Z,100369.47
2022-10-18T09:20:29.263Z,100374.56
2022-10-18T09:23:20.623Z,100369.66
2022-10-18T09:25:57.864Z,100370.47
2022-10-18T09:28:49.356Z,100363.75
2022-10-18T09:31:20.700Z,100371.78
2022-10-18T09:34:08.535Z,100362.94
2022-10-18T09:36:37.805Z,100377.53
2022-10-18T09:39:15.488Z,100374.06
2022-10-18T09:41:51.688Z,100366.38
2022-10-18T09:44:23.240Z,100365.56
2022-10-18T09:46:57.793Z,100376.97
2022-10-18T09:49:30.256Z,100373.66
2022-10-18T09:51:57.106Z,100365.75
2022-10-18T09:54:32.251Z,100371.06
2022-10-18T09:57:36.128Z,100366.41
2022-10-18T10:00:05.094Z,100375.91
2022-10-18T10:02:31.767Z,100375.75
2022-10-18T10:05:00.981Z,100381.34
2022-10-18T10:07:35.510Z,100377.41
2022-10-18T10:10:12.690Z,100382.00
2022-10-18T10:12:40.025Z,100379.41
2022-10-18T10:15:33.127Z,100385.00
2022-10-18T10:18:20.330Z,100381.66
2022-10-18T10:20:55.364Z,100381.91
2022-10-18T10:23:21.815Z,100382.94
2022-10-18T10:25:54.069Z,100381.69
2022-10-18T10:28:23.670Z,100381.34
2022-10-18T10:30:50.711Z,100381.88
2022-10-18T10:33:38.158Z,100388.78
2022-10-18T10:36:10.194Z,100385.34
2022-10-18T10:38:36.675Z,100385.38
2022-10-18T10:41:03.265Z,100379.25
2022-10-18T10:43:39.153Z,100379.25
2022-10-18T10:46:10.207Z,100381.00
2022-10-18T10:49:14.188Z,100385.75
2022-10-18T10:51:43.537Z,100385.59
2022-10-18T10:54:18.568Z,100385.25
2022-10-18T10:56:55.687Z,100390.63
2022-10-18T10:59:24.118Z,100392.41
2022-10-18T11:02:20.595Z,100394.84
2022-10-18T11:04:52.561Z,100395.03
2022-10-18T11:07:30.442Z,100393.38
2022-10-18T11:10:10.984Z,100398.16
2022-10-18T11:13:03.048Z,100395.66
2022-10-18T11:15:41.668Z,100396.66
2022-10-18T11:18:17.468Z,100392.84
2022-10-18T11:20:57.610Z,100392.88
2022-10-18T11:23:31.070Z,100396.38
2022-10-18T11:26:12.798Z,100398.78
2022-10-18T11:28:53.286Z,100392.53
2022-10-18T11:31:58.903Z,100403.78
2022-10-18T11:34:55.047Z,100399.41
2022-10-18T11:38:07.698Z,100398.25
2022-10-18T11:41:06.563Z,100395.13
2022-10-18T11:44:01.129Z,100399.38
2022-10-18T11:47:01.486Z,100394.38
2022-10-18T11:50:00.238Z,100395.38
2022-10-18T11:52:42.470Z,100391.19
2022-10-18T11:55:32.851Z,100392.63
2022-10-18T11:58:27.910Z,100387.31
2022-10-18T12:01:03.601Z,100386.47
2022-10-18T12:03:48.761Z,100384.34
2022-10-18T12:06:17.670Z,100375.09
2022-10-18T12:08:48.399Z,100376.97
2022-10-18T12:11:19.984Z,100365.41
2022-10-18T12:13:54.266Z,100379.31
2022-10-18T12:16:45.681Z,100366.84
2022-10-18T12:19:23.320Z,100375.44
2022-10-18T12:21:57.438Z,100372.00
2022-10-18T12:24:30.795Z,100365.41
2022-10-18T12:27:00.204Z,100372.44
2022-10-18T12:29:29.771Z,100372.59
2022-10-18T12:31:59.864Z,100359.41
2022-10-18T12:34:32.007Z,100355.56
2022-10-18T12:37:04.748Z,100360.81
2022-10-18T12:39:43.920Z,100364.66
2022-10-18T12:42:25.864Z,100363.69
2022-10-18T12:45:24.260Z,100354.25
2022-10-18T12:47:51.031Z,100357.97
2022-10-18T12:50:38.639Z,100354.25
2022-10-18T12:53:26.681Z,100351.94
2022-10-18T12:55:54.046Z,100352.31
2022-10-18T12:58:20.585Z,100353.22
2022-10-18T13:00:47.763Z,100346.56
2022-10-18T13:03:17.804Z,100351.88
2022-10-18T13:05:56.065Z,100355.38
2022-10-18T13:08:33.872Z,100352.84
2022-10-18T13:11:09.816Z,100359.31
2022-10-18T13:14:10.781Z,100357.44
2022-10-18T13:16:56.426Z,100355.19
2022-10-18T13:19:41.432Z,100344.97
2022-10-18T13:22:23.199Z,100356.44
2022-10-18T13:25:22.232Z,100354.81
2022-10-18T13:28:06.040Z,100353.31
2022-10-18T13:30:48.367Z,100357.44
2022-10-18T13:33:17.831Z,100354.09
2022-10-18T13:35:58.875Z,100349.69
2022-10-18T13:39:04.060Z,100352.97
2022-10-18T13:41:57.708Z,100348.00
2022-10-18T13:44:40.047Z,100346.88
2022-10-18T13:47:07.024Z,100349.63
2022-10-18T13:49:39.550Z,100354.34
2022-10-18T13:52:30.929Z,100354.59
2022-10-18T13:55:22.126Z,100354.78
2022-10-18T13:58:33.936Z,100360.91
2022-10-18T14:01:21.641Z,100368.25
2022-10-18T14:04:17.825Z,100366.22
2022-10-18T14:06:47.369Z,100362.00
2022-10-18T14:12:35.284Z,100372.84
2022-10-18T14:15:21.302Z,100369.22
2022-10-18T14:17:53.626Z,100367.66
2022-10-18T14:20:49.424Z,100366.94
2022-10-18T14:23:38.180Z,100364.00
2022-10-18T14:26:22.632Z,100364.78
2022-10-18T14:29:17.316Z,100363.09
2022-10-18T14:31:51.623Z,100366.66
2022-10-18T14:34:18.572Z,100362.28
2022-10-18T14:36:48.538Z,100362.34
2022-10-18T14:39:24.482Z,100355.47
2022-10-18T14:41:55.057Z,100357.97
2022-10-18T14:44:26.204Z,100361.06
2022-10-18T14:46:55.704Z,100363.66
2022-10-18T14:49:22.211Z,100355.66
2022-10-18T14:51:56.876Z,100353.56
2022-10-18T14:54:30.670Z,100352.31
2022-10-18T14:56:59.754Z,100360.47
2022-10-18T14:59:31.076Z,100358.31
2022-10-18T15:02:02.639Z,100362.84
2022-10-18T15:04:33.177Z,100351.44
2022-10-18T15:07:05.909Z,100357.63
2022-10-18T15:09:34.524Z,100352.63
2022-10-18T15:12:03.348Z,100356.84
2022-10-18T15:14:30.582Z,100356.59
2022-10-18T15:17:08.482Z,100353.03
2022-10-18T15:19:39.393Z,100354.44
2022-10-18T15:25:31.783Z,100360.75
2022-10-18T15:27:59.781Z,100359.44
2022-10-18T15:30:37.902Z,100360.34
2022-10-18T15:33:09.750Z,100355.69
2022-10-18T15:35:38.570Z,100355.16
2022-10-18T15:38:43.377Z,100349.88
2022-10-18T15:41:41.128Z,100351.78
2022-10-18T15:44:14.659Z,100343.06
2022-10-18T15:46:41.273Z,100347.88
2022-10-18T15:49:45.788Z,100353.34
2022-10-18T15:52:21.437Z,100348.34
2022-10-18T15:57:16.581Z,100334.47
2022-10-18T15:59:52.024Z,100347.06
2022-10-18T16:02:19.141Z,100343.13
2022-10-18T16:04:47.387Z,100344.03
2022-10-18T16:07:14.312Z,100340.81
2022-10-18T16:09:40.842Z,100340.91
2022-10-18T16:12:07.375Z,100333.09
2022-10-18T16:14:34.038Z,100330.78
2022-10-18T16:17:03.484Z,100331.56
2022-10-18T16:19:30.665Z,100329.78
2022-10-18T16:22:05.948Z,100322.72
2022-10-18T16:24:33.154Z,100324.59
2022-10-18T16:26:59.770Z,100324.19
2022-10-18T16:29:28.654Z,100329.41
2022-10-18T16:31:58.173Z,100330.00
2022-10-18T16:34:28.995Z,100328.75
2022-10-18T16:36:59.135Z,100321.56
2022-10-18T16:39:26.118Z,100323.66
2022-10-18T16:41:52.932Z,100325.53
2022-10-18T16:44:19.533Z,100327.34
2022-10-18T16:47:23.082Z,100328.84
2022-10-18T16:49:50.372Z,100331.28
2022-10-18T16:52:16.907Z,100338.84
2022-10-18T16:54:44.072Z,100340.38
2022-10-18T16:57:12.621Z,100342.25
2022-10-18T16:59:39.098Z,100337.16
2022-10-18T17:02:09.255Z,100352.75
2022-10-18T17:04:41.731Z,100352.75
2022-10-18T17:07:18.506Z,100358.75
2022-10-18T17:09:48.691Z,100359.38
2022-10-18T17:12:21.379Z,100368.78
2022-10-18T17:14:50.447Z,100369.13
2022-10-18T17:17:17.173Z,100377.84
2022-10-18T17:19:50.337Z,100381.16
2022-10-18T17:22:16.955Z,100369.31
2022-10-18T17:24:43.713Z,100373.75
2022-10-18T17:27:11.477Z,100373.88
2022-10-18T17:29:38.056Z,100371.50
2022-10-18T17:32:04.733Z,100373.97
2022-10-18T17:34:31.836Z,100375.75
2022-10-18T17:36:58.536Z,100381.06
2022-10-18T17:39:25.246Z,100382.84
2022-10-18T17:41:58.103Z,100385.25
2022-10-18T17:44:27.603Z,100380.84
2022-10-18T17:46:54.279Z,100384.38
2022-10-18T17:49:24.343Z,100391.44
2022-10-18T17:52:03.296Z,100395.72
2022-10-18T17:54:33.486Z,100382.53
2022-10-18T17:57:00.158Z,100395.47
2022-10-18T17:59:31.418Z,100385.06
2022-10-18T18:01:58.093Z,100387.66
2022-10-18T18:04:25.799Z,100394.38
2022-10-18T18:06:53.046Z,100391.56
2022-10-18T18:09:21.041Z,100386.59
2022-10-18T18:11:48.423Z,100389.03
2022-10-18T18:14:17.691Z,100393.38
2022-10-18T18:16:46.129Z,100398.41
2022-10-18T18:19:13.891Z,100394.16
2022-10-18T18:21:41.195Z,100396.84
2022-10-18T18:24:10.048Z,100397.94
2022-10-18T18:26:40.362Z,100394.56
2022-10-18T18:29:06.975Z,100394.75
2022-10-18T18:31:38.788Z,100387.47
2022-10-18T18:34:09.550Z,100389.16
2022-10-18T18:36:39.036Z,100390.03
2022-10-18T18:39:11.396Z,100391.78
2022-10-18T18:41:38.417Z,100387.38
2022-10-18T18:44:06.137Z,100393.09
2022-10-18T18:46:37.099Z,100389.19
2022-10-18T18:49:05.724Z,100385.53
2022-10-18T18:51:33.385Z,100388.97
2022-10-18T18:54:00.296Z,100388.16
2022-10-18T18:56:28.811Z,100394.09
2022-10-18T18:58:56.741Z,100388.97
2022-10-18T19:01:24.970Z,100388.78
2022-10-18T19:03:52.827Z,100384.47
2022-10-18T19:06:26.077Z,100387.03
2022-10-18T19:08:54.581Z,100387.66
2022-10-18T19:11:22.155Z,100385.13
2022-10-18T19:13:49.177Z,100388.22
2022-10-18T19:16:23.554Z,100392.06
2022-10-18T19:18:53.974Z,100385.97
2022-10-18T19:21:21.624Z,100383.03
2022-10-18T19:23:51.289Z,100391.50
2022-10-18T19:26:25.268Z,100378.66
2022-10-18T19:28:51.839Z,100376.75
2022-10-18T19:31:18.384Z,100382.63
2022-10-18T19:33:55.622Z,100395.59
2022-10-18T19:36:25.298Z,100380.38
2022-10-18T19:38:51.893Z,100384.06
2022-10-18T19:41:18.408Z,100379.00
2022-10-18T19:43:45.295Z,100370.13
2022-10-18T19:46:11.928Z,100378.19
2022-10-18T19:48:41.253Z,100373.81
2022-10-18T19:51:09.483Z,100381.25
2022-10-18T19:53:36.572Z,100378.75
2022-10-18T19:56:07.391Z,100377.84
2022-10-18T19:58:34.109Z,100385.31
2022-10-18T20:01:02.308Z,100381.91
2022-10-18T20:03:31.834Z,100377.13
2022-10-18T20:05:59.659Z,100386.41
2022-10-18T20:08:27.959Z,100385.38
2022-10-18T20:10:55.589Z,100376.56
2022-10-18T20:13:22.608Z,100382.88
2022-10-18T20:15:51.089Z,100374.97
2022-10-18T20:18:18.674Z,100378.94
2022-10-18T20:20:48.105Z,100378.06
2022-10-18T20:23:16.194Z,100384.44
2022-10-18T20:25:42.754Z,100373.16
2022-10-18T20:28:12.067Z,100378.81
2022-10-18T20:30:38.624Z,100372.91
2022-10-18T20:33:05.117Z,100370.88
2022-10-18T20:35:32.389Z,100373.59
2022-10-18T20:38:05.608Z,100371.69
2022-10-18T20:40:32.469Z,100376.75
2022-10-18T20:43:03.604Z,100375.97
2022-10-18T20:45:30.519Z,100381.13
2022-10-18T20:47:56.941Z,100382.50
2022-10-18T20:50:23.383Z,100377.06
2022-10-18T20:52:51.531Z,100380.34
2022-10-18T20:55:19.034Z,100374.63
2022-10-18T20:57:49.548Z,100372.84
2022-10-18T21:00:16.573Z,100365.59
2022-10-18T21:02:43.041Z,100368.50
2022-10-18T21:05:09.765Z,100363.81
2022-10-18T21:07:36.824Z,100375.31
2022-10-18T21:10:03.878Z,100362.56
2022-10-18T21:12:30.696Z,100368.34
2022-10-18T21:14:57.448Z,100364.84
2022-10-18T21:17:24.069Z,100357.75
2022-10-18T21:19:50.554Z,100361.91
2022-10-18T21:22:20.145Z,100348.06
2022-10-18T21:24:50.335Z,100357.88
2022-10-18T21:27:16.875Z,100350.91
2022-10-18T21:29:43.932Z,100352.69
2022-10-18T21:32:10.359Z,100349.72
2022-10-18T21:34:42.195Z,100342.75
2022-10-18T21:37:08.735Z,100356.22
2022-10-18T21:39:35.528Z,100346.81
2022-10-18T21:42:02.097Z,100347.28
2022-10-18T21:44:28.703Z,100344.59
2022-10-18T21:46:55.501Z,100349.56
2022-10-18T21:49:25.249Z,100358.41
2022-10-18T21:51:53.481Z,100345.50
2022-10-18T21:54:20.120Z,100352.59
2022-10-18T21:59:37.574Z,100352.72
2022-10-18T22:02:08.807Z,100351.09
2022-10-18T22:04:51.926Z,100350.78
2022-10-18T22:07:33.505Z,100346.38
2022-10-18T22:10:04.329Z,100339.06
2022-10-18T22:12:30.858Z,100343.75
2022-10-18T22:14:57.383Z,100342.19
2022-10-18T22:17:24.334Z,100346.47
2022-10-18T22:19:50.804Z,100341.38
2022-10-18T22:22:28.615Z,100349.16
2022-10-18T22:24:55.172Z,100355.44
2022-10-18T22:27:21.680Z,100361.31
2022-10-18T22:29:48.116Z,100359.13
2022-10-18T22:32:14.700Z,100350.69
2022-10-18T22:34:41.292Z,100357.47
2022-10-18T22:39:56.868Z,100348.44
2022-10-18T22:42:23.836Z,100351.97
2022-10-18T22:44:50.343Z,100349.88
2022-10-18T22:50:01.655Z,100347.28
2022-10-18T22:52:28.129Z,100338.59
2022-10-18T22:54:54.621Z,100341.91
2022-10-18T22:57:21.183Z,100341.81
2022-10-18T22:59:47.633Z,100333.94
2022-10-18T23:02:18.930Z,100340.06
2022-10-18T23:04:54.516Z,100338.78
2022-10-18T23:07:23.074Z,100333.31
2022-10-18T23:09:49.610Z,100329.81
2022-10-18T23:12:16.167Z,100345.44
2022-10-18T23:14:43.805Z,100338.53
2022-10-18T23:17:12.337Z,100330.53
2022-10-18T23:19:38.988Z,100322.09
2022-10-18T23:22:06.387Z,100323.28
2022-10-18T23:24:32.964Z,100325.72
2022-10-18T23:26:59.527Z,100327.25
2022-10-18T23:29:26.018Z,100317.81
2022-10-18T23:31:52.568Z,100318.31
2022-10-18T23:34:23.517Z,100319.91
2022-10-18T23:36:50.096Z,100324.41
2022-10-18T23:39:16.596Z,100319.13
2022-10-18T23:41:43.155Z,100319.13
2022-10-18T23:44:10.904Z,100316.44
2022-10-18T23:46:39.269Z,100323.22
2022-10-18T23:49:07.787Z,100314.59
2022-10-18T23:51:44.706Z,100317.47
2022-10-18T23:54:11.377Z,100320.47
2022-10-18T23:56:37.913Z,100313.75
2022-10-18T23:59:04.409Z,100320.53
